Archer City, Texas
Current Conditions -  °F | °C
As of 12:15 AM on Sunday 23 Nov 2014 (Local Time) from KCWC Reporting Station
Moderate Fog Moderate Fog  
Wind Chill: 46°   Ceiling: 200
Heat Index: 48°   Visibility: 0.25mi
Dew Point: 48°   Wind: 6mph
Humidity: 100%   Direction: 150°SSE
Pressure: 29.68"   Gusts: NA
Location:  33.6°N, 98.63°W
Report Text: KCWC 230615Z AUTO 15005KT 1/4SM FG VV002 09/09 A2968 RMK AO2 T00910091
Loading
Personal Weather Stations






























Interactive Weather Map New forecast layout! Learn more

10-Day Weather Forecast

Advertisements
Track Severe Weather on mobile